createdAt,value
2019-03-20T00:01:27.247Z,55.20
2019-03-20T00:03:57.908Z,55.00
2019-03-20T00:06:28.479Z,55.10
2019-03-20T00:09:00.496Z,55.10
2019-03-20T00:11:31.722Z,55.20
2019-03-20T00:14:02.940Z,55.20
2019-03-20T00:16:33.651Z,55.10
2019-03-20T00:19:04.747Z,55.10
2019-03-20T00:21:35.842Z,55.00
2019-03-20T00:24:07.295Z,55.70
2019-03-20T00:26:42.045Z,55.10
2019-03-20T00:29:14.681Z,55.20
2019-03-20T00:31:45.159Z,54.90
2019-03-20T00:34:17.401Z,55.10
2019-03-20T00:36:48.010Z,55.70
2019-03-20T00:39:18.847Z,55.40
2019-03-20T00:41:49.712Z,55.30
2019-03-20T00:44:20.126Z,55.30
2019-03-20T00:46:50.688Z,55.30
2019-03-20T00:49:21.377Z,55.30
2019-03-20T00:51:51.808Z,55.30
2019-03-20T00:54:22.549Z,55.40
2019-03-20T00:56:53.392Z,55.40
2019-03-20T00:59:24.017Z,55.30
2019-03-20T01:01:54.745Z,55.30
2019-03-20T01:04:25.606Z,55.10
2019-03-20T01:06:56.125Z,55.20
2019-03-20T01:09:26.794Z,55.30
2019-03-20T01:11:57.452Z,55.30
2019-03-20T01:14:28.117Z,55.30
2019-03-20T01:16:59.116Z,55.30
2019-03-20T01:19:30.102Z,55.30
2019-03-20T01:22:01.165Z,55.30
2019-03-20T01:24:31.817Z,55.30
2019-03-20T01:27:02.252Z,55.20
2019-03-20T01:29:32.820Z,55.10
2019-03-20T01:32:03.577Z,55.30
2019-03-20T01:34:34.211Z,55.70
2019-03-20T01:37:04.872Z,55.20
2019-03-20T01:39:35.671Z,55.10
2019-03-20T01:42:06.625Z,55.10
2019-03-20T01:44:37.253Z,55.20
2019-03-20T01:47:08.072Z,55.10
2019-03-20T01:49:38.586Z,55.20
2019-03-20T01:52:09.542Z,55.10
2019-03-20T01:54:40.166Z,55.10
2019-03-20T01:57:10.722Z,55.00
2019-03-20T01:59:41.456Z,55.60
2019-03-20T02:02:12.171Z,55.10
2019-03-20T02:04:42.559Z,55.00
2019-03-20T02:07:13.245Z,55.10
2019-03-20T02:09:44.060Z,55.10
2019-03-20T02:12:14.692Z,55.10
2019-03-20T02:14:45.250Z,55.10
2019-03-20T02:17:15.880Z,55.10
2019-03-20T02:19:46.660Z,55.20
2019-03-20T02:22:17.340Z,55.30
2019-03-20T02:24:48.061Z,55.30
2019-03-20T02:27:18.689Z,55.30
2019-03-20T02:29:49.460Z,55.30
2019-03-20T02:32:20.180Z,55.30
2019-03-20T02:34:50.921Z,55.30
2019-03-20T02:37:21.338Z,55.30
2019-03-20T02:39:52.084Z,55.30
2019-03-20T02:42:22.649Z,55.20
2019-03-20T02:44:53.246Z,55.20
2019-03-20T02:47:23.833Z,55.20
2019-03-20T02:49:54.631Z,55.10
2019-03-20T02:52:25.314Z,55.00
2019-03-20T02:54:56.021Z,55.00
2019-03-20T02:57:26.539Z,54.90
2019-03-20T02:59:57.277Z,55.00
2019-03-20T03:02:27.887Z,55.10
2019-03-20T03:04:58.844Z,55.00
2019-03-20T03:07:29.434Z,55.00
2019-03-20T03:09:59.982Z,54.90
2019-03-20T03:12:30.621Z,55.00
2019-03-20T03:15:01.125Z,55.00
2019-03-20T03:17:31.910Z,55.00
2019-03-20T03:20:03.281Z,55.00
2019-03-20T03:22:33.971Z,55.10
2019-03-20T03:25:04.870Z,55.10
2019-03-20T03:27:35.437Z,55.20
2019-03-20T03:30:06.187Z,55.20
2019-03-20T03:32:36.725Z,55.20
2019-03-20T03:35:07.448Z,55.20
2019-03-20T03:37:37.928Z,55.30
2019-03-20T03:40:09.414Z,55.10
2019-03-20T03:42:40.145Z,55.20
2019-03-20T03:45:12.125Z,55.20
2019-03-20T03:47:42.740Z,55.20
2019-03-20T03:50:13.503Z,55.00
2019-03-20T03:52:44.403Z,54.90
2019-03-20T03:55:15.351Z,54.90
2019-03-20T03:57:46.285Z,54.90
2019-03-20T04:00:16.848Z,54.90
2019-03-20T04:02:47.452Z,54.90
2019-03-20T04:05:18.025Z,54.90
2019-03-20T04:07:48.831Z,54.90
2019-03-20T04:10:19.370Z,54.90
2019-03-20T04:12:50.069Z,54.90
2019-03-20T04:15:20.585Z,54.90
2019-03-20T04:17:51.286Z,54.90
2019-03-20T04:20:22.159Z,54.90
2019-03-20T04:22:53.429Z,54.90
2019-03-20T04:25:24.025Z,54.80
2019-03-20T04:27:58.599Z,54.80
2019-03-20T04:30:29.433Z,54.90
2019-03-20T04:33:00.077Z,54.90
2019-03-20T04:35:30.660Z,54.90
2019-03-20T04:38:01.420Z,55.00
2019-03-20T04:40:32.040Z,55.00
2019-03-20T04:43:02.570Z,54.90
2019-03-20T04:45:33.380Z,54.90
2019-03-20T04:48:04.051Z,54.80
2019-03-20T04:50:34.777Z,55.40
2019-03-20T04:53:05.404Z,54.80
2019-03-20T04:55:36.285Z,54.80
2019-03-20T04:58:06.981Z,54.80
2019-03-20T05:00:37.845Z,55.10
2019-03-20T05:03:08.664Z,54.90
2019-03-20T05:05:39.320Z,54.90
2019-03-20T05:08:09.959Z,55.00
2019-03-20T05:10:40.594Z,55.00
2019-03-20T05:13:11.321Z,55.00
2019-03-20T05:15:42.192Z,55.00
2019-03-20T05:18:12.859Z,55.00
2019-03-20T05:20:43.436Z,54.90
2019-03-20T05:23:14.125Z,54.90
2019-03-20T05:25:44.622Z,54.90
2019-03-20T05:28:15.281Z,54.90
2019-03-20T05:30:45.718Z,54.80
2019-03-20T05:33:16.390Z,55.40
2019-03-20T05:35:47.070Z,54.80
2019-03-20T05:38:17.935Z,54.80
2019-03-20T05:40:48.538Z,54.80
2019-03-20T05:43:19.242Z,54.70
2019-03-20T05:45:49.791Z,54.60
2019-03-20T05:48:20.467Z,54.60
2019-03-20T05:50:51.173Z,54.80
2019-03-20T05:53:21.668Z,54.80
2019-03-20T05:55:52.273Z,54.80
2019-03-20T05:58:23.142Z,54.90
2019-03-20T06:00:53.783Z,55.50
2019-03-20T06:03:24.548Z,54.90
2019-03-20T06:05:55.296Z,54.90
2019-03-20T06:08:26.231Z,55.00
2019-03-20T06:10:56.995Z,54.80
2019-03-20T06:13:27.798Z,55.60
2019-03-20T06:15:58.561Z,56.80
2019-03-20T06:18:29.453Z,57.10
2019-03-20T06:21:00.088Z,58.60
2019-03-20T06:23:30.842Z,61.00
2019-03-20T06:26:01.682Z,60.40
2019-03-20T06:28:32.452Z,60.70
2019-03-20T06:31:03.066Z,60.00
2019-03-20T06:33:33.801Z,59.80
2019-03-20T06:36:04.595Z,59.80
2019-03-20T06:38:35.350Z,59.70
2019-03-20T06:41:05.958Z,60.40
2019-03-20T06:43:36.925Z,60.70
2019-03-20T06:46:08.288Z,59.70
2019-03-20T06:48:39.328Z,58.10
2019-03-20T06:51:09.974Z,57.20
2019-03-20T06:53:40.592Z,56.80
2019-03-20T06:56:11.386Z,55.30
2019-03-20T06:58:42.374Z,55.30
2019-03-20T07:01:29.215Z,54.90
2019-03-20T07:04:31.373Z,57.10
2019-03-20T07:07:43.654Z,58.30
2019-03-20T07:10:52.066Z,56.50
2019-03-20T07:13:22.800Z,57.40
2019-03-20T07:15:53.547Z,57.20
2019-03-20T07:18:24.209Z,56.50
2019-03-20T07:20:54.944Z,55.50
2019-03-20T07:23:25.431Z,52.40
2019-03-20T07:25:56.407Z,50.00
2019-03-20T07:28:27.024Z,48.50
2019-03-20T07:30:57.495Z,47.10
2019-03-20T07:33:28.351Z,45.70
2019-03-20T07:35:58.892Z,45.10
2019-03-20T07:38:29.534Z,44.40
2019-03-20T07:41:00.319Z,45.30
2019-03-20T07:43:30.828Z,46.50
2019-03-20T07:46:01.695Z,47.70
2019-03-20T07:48:32.396Z,42.60
2019-03-20T07:51:03.185Z,41.20
2019-03-20T07:53:33.852Z,39.90
2019-03-20T07:56:04.765Z,40.20
2019-03-20T07:58:35.491Z,39.80
2019-03-20T08:01:05.897Z,39.30
2019-03-20T08:03:36.337Z,38.80
2019-03-20T08:06:07.149Z,38.40
2019-03-20T08:08:37.693Z,37.90
2019-03-20T08:11:08.479Z,37.70
2019-03-20T08:13:39.126Z,37.30
2019-03-20T08:16:09.858Z,37.10
2019-03-20T08:18:40.341Z,36.90
2019-03-20T08:21:10.873Z,36.70
2019-03-20T08:23:41.269Z,36.80
2019-03-20T08:26:11.683Z,36.60
2019-03-20T08:28:42.075Z,37.00
2019-03-20T08:31:12.468Z,37.80
2019-03-20T08:33:43.214Z,38.40
2019-03-20T08:36:13.606Z,39.00
2019-03-20T08:38:44.190Z,39.50
2019-03-20T08:41:14.805Z,40.10
2019-03-20T08:43:45.740Z,40.50
2019-03-20T08:46:16.728Z,40.90
2019-03-20T08:48:48.366Z,41.30
2019-03-20T08:51:19.348Z,42.20
2019-03-20T08:53:50.006Z,42.10
2019-03-20T08:56:20.525Z,42.40
2019-03-20T08:58:51.230Z,42.60
2019-03-20T09:01:28.367Z,43.00
2019-03-20T09:03:54.078Z,44.10
2019-03-20T09:06:24.673Z,43.60
2019-03-20T09:08:55.502Z,44.00
2019-03-20T09:11:26.273Z,44.80
2019-03-20T09:13:56.743Z,44.20
2019-03-20T09:16:27.530Z,44.50
2019-03-20T09:18:58.307Z,44.50
2019-03-20T09:21:29.032Z,44.70
2019-03-20T09:23:59.616Z,44.90
2019-03-20T09:26:30.401Z,45.10
2019-03-20T09:29:00.780Z,45.50
2019-03-20T09:31:31.263Z,45.60
2019-03-20T09:34:01.960Z,45.70
2019-03-20T09:36:42.795Z,45.70
2019-03-20T09:39:06.644Z,45.80
2019-03-20T09:41:37.374Z,45.80
2019-03-20T09:44:07.974Z,45.80
2019-03-20T09:46:38.629Z,45.80
2019-03-20T09:49:09.107Z,46.00
2019-03-20T09:51:39.685Z,46.10
2019-03-20T09:54:10.298Z,46.30
2019-03-20T09:56:41.061Z,46.40
2019-03-20T09:59:11.662Z,46.60
2019-03-20T10:01:42.230Z,46.80
2019-03-20T10:04:13.024Z,46.80
2019-03-20T10:06:43.875Z,47.00
2019-03-20T10:09:15.815Z,47.00
2019-03-20T10:11:46.376Z,47.00
2019-03-20T10:14:17.127Z,47.20
2019-03-20T10:16:47.851Z,47.20
2019-03-20T10:19:18.382Z,47.30
2019-03-20T10:21:48.905Z,47.10
2019-03-20T10:24:19.305Z,46.90
2019-03-20T10:26:49.973Z,47.00
2019-03-20T10:29:20.601Z,47.10
2019-03-20T10:31:51.417Z,47.20
2019-03-20T10:34:22.087Z,47.30
2019-03-20T10:36:52.906Z,47.40
2019-03-20T10:39:23.672Z,47.50
2019-03-20T10:41:54.243Z,47.50
2019-03-20T10:44:24.802Z,47.40
2019-03-20T10:46:55.645Z,47.40
2019-03-20T10:49:26.066Z,47.50
2019-03-20T10:51:56.570Z,47.40
2019-03-20T10:54:27.349Z,47.50
2019-03-20T10:56:57.875Z,47.50
2019-03-20T10:59:28.383Z,47.80
2019-03-20T11:02:00.895Z,48.00
2019-03-20T11:04:32.038Z,48.40
2019-03-20T11:07:02.599Z,48.80
2019-03-20T11:09:33.265Z,48.50
2019-03-20T11:12:03.928Z,48.30
2019-03-20T11:14:34.800Z,48.50
2019-03-20T11:17:05.401Z,48.50
2019-03-20T11:19:35.907Z,48.70
2019-03-20T11:22:17.969Z,48.70
2019-03-20T11:24:38.807Z,48.60
2019-03-20T11:27:09.328Z,48.40
2019-03-20T11:29:40.071Z,48.50
2019-03-20T11:32:10.516Z,48.60
2019-03-20T11:34:41.127Z,48.50
2019-03-20T11:37:11.858Z,48.40
2019-03-20T11:39:42.508Z,48.30
2019-03-20T11:42:13.247Z,48.20
2019-03-20T11:44:44.018Z,48.10
2019-03-20T11:47:14.718Z,48.30
2019-03-20T11:49:45.481Z,48.40
2019-03-20T11:52:15.998Z,48.40
2019-03-20T11:54:46.783Z,48.70
2019-03-20T11:57:17.243Z,48.60
2019-03-20T11:59:47.974Z,48.70
2019-03-20T12:02:27.763Z,49.00
2019-03-20T12:04:50.866Z,49.40
2019-03-20T12:07:21.506Z,49.50
2019-03-20T12:09:52.094Z,49.60
2019-03-20T12:12:22.667Z,49.20
2019-03-20T12:14:53.065Z,49.90
2019-03-20T12:17:23.610Z,49.60
2019-03-20T12:19:54.052Z,49.80
2019-03-20T12:22:24.431Z,50.00
2019-03-20T12:24:54.899Z,51.10
2019-03-20T12:27:25.662Z,50.60
2019-03-20T12:29:56.432Z,50.50
2019-03-20T12:32:27.140Z,51.00
2019-03-20T12:34:57.779Z,51.20
2019-03-20T12:37:28.334Z,51.20
2019-03-20T12:39:59.124Z,50.60
2019-03-20T12:42:29.538Z,51.20
2019-03-20T12:45:00.001Z,61.70
2019-03-20T12:47:30.829Z,73.40
2019-03-20T12:50:01.517Z,74.00
2019-03-20T12:52:32.262Z,72.10
2019-03-20T12:55:03.040Z,75.20
2019-03-20T12:57:33.656Z,73.60
2019-03-20T13:00:05.124Z,71.00
2019-03-20T13:02:35.697Z,68.70
2019-03-20T13:05:07.238Z,70.90
2019-03-20T13:07:37.837Z,67.10
2019-03-20T13:10:10.149Z,66.70
2019-03-20T13:12:40.739Z,66.20
2019-03-20T13:15:14.719Z,64.00
2019-03-20T13:17:45.210Z,62.80
2019-03-20T13:20:15.787Z,61.70
2019-03-20T13:22:48.496Z,60.20
2019-03-20T13:25:19.187Z,59.50
2019-03-20T13:27:49.732Z,65.90
2019-03-20T13:30:24.566Z,61.00
2019-03-20T13:32:55.114Z,60.20
2019-03-20T13:35:25.798Z,62.20
2019-03-20T13:37:56.322Z,60.70
2019-03-20T13:40:27.119Z,60.40
2019-03-20T13:42:57.714Z,59.60
2019-03-20T13:45:28.270Z,57.70
2019-03-20T13:47:58.838Z,57.50
2019-03-20T13:50:29.542Z,56.70
2019-03-20T13:53:00.207Z,56.20
2019-03-20T13:55:30.791Z,56.10
2019-03-20T13:58:01.472Z,55.90
2019-03-20T14:00:32.140Z,55.70
2019-03-20T14:03:02.691Z,55.50
2019-03-20T14:05:33.508Z,55.60
2019-03-20T14:08:04.112Z,55.60
2019-03-20T14:10:49.445Z,55.40
2019-03-20T14:13:06.819Z,55.20
2019-03-20T14:15:37.552Z,55.10
2019-03-20T14:18:08.411Z,55.10
2019-03-20T14:20:38.788Z,55.00
2019-03-20T14:23:10.507Z,55.00
2019-03-20T14:25:41.094Z,54.80
2019-03-20T14:28:11.681Z,54.80
2019-03-20T14:30:42.260Z,54.70
2019-03-20T14:33:13.066Z,54.70
2019-03-20T14:35:43.860Z,54.60
2019-03-20T14:38:16.456Z,54.50
2019-03-20T14:40:47.746Z,54.50
2019-03-20T14:43:18.916Z,54.40
2019-03-20T14:45:49.706Z,54.40
2019-03-20T14:48:21.127Z,54.50
2019-03-20T14:50:52.394Z,54.50
2019-03-20T14:53:23.032Z,55.70
2019-03-20T14:55:54.247Z,55.30
2019-03-20T14:58:25.068Z,55.60
2019-03-20T15:00:55.708Z,56.80
2019-03-20T15:03:26.376Z,57.20
2019-03-20T15:05:57.088Z,57.70
2019-03-20T15:08:27.873Z,57.60
2019-03-20T15:10:58.500Z,57.50
2019-03-20T15:13:29.054Z,58.20
2019-03-20T15:16:08.072Z,58.30
2019-03-20T15:18:38.822Z,57.90
2019-03-20T15:21:09.472Z,57.40
2019-03-20T15:23:40.308Z,57.20
2019-03-20T15:26:10.869Z,56.60
2019-03-20T15:28:41.566Z,56.60
2019-03-20T15:31:12.251Z,55.80
2019-03-20T15:33:42.935Z,55.90
2019-03-20T15:36:13.581Z,56.10
2019-03-20T15:38:44.346Z,55.60
2019-03-20T15:41:14.791Z,55.60
2019-03-20T15:43:45.457Z,56.20
2019-03-20T15:46:16.025Z,56.10
2019-03-20T15:48:46.503Z,55.90
2019-03-20T15:51:17.031Z,55.50
2019-03-20T15:53:47.919Z,55.80
2019-03-20T15:56:18.515Z,55.00
2019-03-20T15:58:49.057Z,55.80
2019-03-20T16:01:19.586Z,55.40
2019-03-20T16:03:50.534Z,55.60
2019-03-20T16:06:21.140Z,55.80
2019-03-20T16:08:51.507Z,55.90
2019-03-20T16:11:22.446Z,55.90
2019-03-20T16:13:53.936Z,55.80
2019-03-20T16:16:24.623Z,55.70
2019-03-20T16:18:55.435Z,55.80
2019-03-20T16:21:26.130Z,55.90
2019-03-20T16:23:56.895Z,55.80
2019-03-20T16:26:27.693Z,55.80
2019-03-20T16:28:58.274Z,55.80
2019-03-20T16:31:28.933Z,55.80
2019-03-20T16:34:00.209Z,55.90
2019-03-20T16:36:30.997Z,55.60
2019-03-20T16:39:05.263Z,55.30
2019-03-20T16:41:36.149Z,55.50
2019-03-20T16:44:07.430Z,55.70
2019-03-20T16:46:38.400Z,55.80
2019-03-20T16:49:09.343Z,55.90
2019-03-20T16:51:40.274Z,55.70
2019-03-20T16:54:10.983Z,55.30
2019-03-20T16:56:41.583Z,55.60
2019-03-20T16:59:12.365Z,55.30
2019-03-20T17:01:43.188Z,55.60
2019-03-20T17:04:13.975Z,55.60
2019-03-20T17:06:44.774Z,55.40
2019-03-20T17:09:15.516Z,55.20
2019-03-20T17:11:46.648Z,55.00
2019-03-20T17:14:17.882Z,55.10
2019-03-20T17:16:48.627Z,55.70
2019-03-20T17:19:19.240Z,55.40
2019-03-20T17:21:50.105Z,55.50
2019-03-20T17:24:20.971Z,55.60
2019-03-20T17:26:51.652Z,55.80
2019-03-20T17:29:22.519Z,55.70
2019-03-20T17:31:53.515Z,55.50
2019-03-20T17:34:24.243Z,55.50
2019-03-20T17:36:54.811Z,55.20
2019-03-20T17:39:25.689Z,55.30
2019-03-20T17:41:56.319Z,55.30
2019-03-20T17:44:27.028Z,55.20
2019-03-20T17:46:57.441Z,55.10
2019-03-20T17:49:28.385Z,55.20
2019-03-20T17:51:59.133Z,55.20
2019-03-20T17:54:29.639Z,55.10
2019-03-20T17:57:00.224Z,55.10
2019-03-20T17:59:30.878Z,55.10
2019-03-20T18:02:01.538Z,55.10
2019-03-20T18:04:32.192Z,55.00
2019-03-20T18:07:02.851Z,54.90
2019-03-20T18:09:33.984Z,54.90
2019-03-20T18:12:04.864Z,55.00
2019-03-20T18:14:35.485Z,55.10
2019-03-20T18:17:05.863Z,55.10
2019-03-20T18:19:36.447Z,55.10
2019-03-20T18:22:06.848Z,55.10
2019-03-20T18:24:37.324Z,54.90
2019-03-20T18:27:07.818Z,54.80
2019-03-20T18:29:38.551Z,55.00
2019-03-20T18:32:09.323Z,55.10
2019-03-20T18:34:39.902Z,55.00
2019-03-20T18:37:10.496Z,55.00
2019-03-20T18:39:41.152Z,55.00
2019-03-20T18:42:11.871Z,57.50
2019-03-20T18:44:42.657Z,55.80
2019-03-20T18:47:13.252Z,55.80
2019-03-20T18:49:43.936Z,55.90
2019-03-20T18:52:14.678Z,55.80
2019-03-20T18:54:45.389Z,55.50
2019-03-20T18:57:15.956Z,55.10
2019-03-20T18:59:47.563Z,55.20
2019-03-20T19:02:18.037Z,55.00
2019-03-20T19:04:48.464Z,54.40
2019-03-20T19:07:18.993Z,54.40
2019-03-20T19:09:49.493Z,53.50
2019-03-20T19:12:20.242Z,52.70
2019-03-20T19:14:50.751Z,53.20
2019-03-20T19:17:21.213Z,54.20
2019-03-20T19:19:51.822Z,56.30
2019-03-20T19:22:22.562Z,55.10
2019-03-20T19:24:53.682Z,54.10
2019-03-20T19:27:24.208Z,54.40
2019-03-20T19:29:54.982Z,53.90
2019-03-20T19:32:25.732Z,55.00
2019-03-20T19:34:56.296Z,55.40
2019-03-20T19:37:27.395Z,55.50
2019-03-20T19:39:57.965Z,56.50
2019-03-20T19:42:28.569Z,56.00
2019-03-20T19:44:59.038Z,55.60
2019-03-20T19:47:29.500Z,55.50
2019-03-20T19:50:00.076Z,54.80
2019-03-20T19:52:30.980Z,54.40
2019-03-20T19:55:01.668Z,53.80
2019-03-20T19:57:32.339Z,53.50
2019-03-20T20:00:03.252Z,53.40
2019-03-20T20:02:33.916Z,53.40
2019-03-20T20:05:14.995Z,53.60
2019-03-20T20:07:37.977Z,53.70
2019-03-20T20:10:10.012Z,54.00
2019-03-20T20:12:40.859Z,54.10
2019-03-20T20:15:15.436Z,54.00
2019-03-20T20:17:47.064Z,54.30
2019-03-20T20:20:19.460Z,54.50
2019-03-20T20:22:51.409Z,54.80
2019-03-20T20:25:22.927Z,55.00
2019-03-20T20:27:54.343Z,55.40
2019-03-20T20:30:26.071Z,55.60
2019-03-20T20:32:58.280Z,55.60
2019-03-20T20:35:30.155Z,55.60
2019-03-20T20:38:00.884Z,56.00
2019-03-20T20:40:31.635Z,55.80
2019-03-20T20:43:01.988Z,55.40
2019-03-20T20:45:32.580Z,55.40
2019-03-20T20:48:03.094Z,55.30
2019-03-20T20:50:33.498Z,55.40
2019-03-20T20:53:03.842Z,55.30
2019-03-20T20:55:34.595Z,55.10
2019-03-20T20:58:05.350Z,55.30
2019-03-20T21:00:36.097Z,55.40
2019-03-20T21:03:06.554Z,55.40
2019-03-20T21:05:37.106Z,55.40
2019-03-20T21:08:07.937Z,55.10
2019-03-20T21:10:38.611Z,55.10
2019-03-20T21:13:09.214Z,55.00
2019-03-20T21:15:46.753Z,55.40
2019-03-20T21:19:17.443Z,55.50
2019-03-20T21:22:55.276Z,55.70
2019-03-20T21:25:26.699Z,55.90
2019-03-20T21:29:09.934Z,55.80
2019-03-20T21:31:57.424Z,56.40
2019-03-20T21:35:16.812Z,56.10
2019-03-20T21:38:13.821Z,56.60
2019-03-20T21:41:53.871Z,56.80
2019-03-20T21:45:30.375Z,57.10
2019-03-20T21:48:01.581Z,57.20
2019-03-20T21:51:15.861Z,57.30
2019-03-20T21:55:08.143Z,57.30
2019-03-20T21:58:13.049Z,57.60
2019-03-20T22:01:35.896Z,56.90
2019-03-20T22:04:07.426Z,56.70
2019-03-20T22:07:09.444Z,56.50
2019-03-20T22:10:52.522Z,56.40
2019-03-20T22:13:41.358Z,56.40
2019-03-20T22:17:05.823Z,56.40
2019-03-20T22:20:27.914Z,56.10
2019-03-20T22:24:02.106Z,56.10
2019-03-20T22:27:12.020Z,56.30
2019-03-20T22:29:43.375Z,56.70
2019-03-20T22:33:21.792Z,57.30
2019-03-20T22:36:01.669Z,56.70
2019-03-20T22:39:40.291Z,56.70
2019-03-20T22:42:36.734Z,56.60
2019-03-20T22:46:05.144Z,56.90
2019-03-20T22:49:30.378Z,56.50
2019-03-20T22:52:46.096Z,56.80
2019-03-20T22:56:07.248Z,59.90
2019-03-20T22:58:48.296Z,62.70
2019-03-20T23:01:57.098Z,60.10
2019-03-20T23:04:34.095Z,58.80
2019-03-20T23:07:05.585Z,59.60
2019-03-20T23:09:36.889Z,59.60
2019-03-20T23:12:12.624Z,59.40
2019-03-20T23:14:44.037Z,59.30
2019-03-20T23:17:15.248Z,58.90
2019-03-20T23:19:47.504Z,58.80
2019-03-20T23:22:18.869Z,58.50
2019-03-20T23:24:50.379Z,58.80
2019-03-20T23:27:29.016Z,57.90
2019-03-20T23:30:01.017Z,58.30
2019-03-20T23:32:32.749Z,58.50
2019-03-20T23:35:04.164Z,58.60
2019-03-20T23:37:35.630Z,59.00
2019-03-20T23:40:09.972Z,58.60
2019-03-20T23:42:41.472Z,57.90
2019-03-20T23:45:14.896Z,58.00
2019-03-20T23:48:31.705Z,58.00
2019-03-20T23:51:08.797Z,57.80
2019-03-20T23:53:44.151Z,57.70
2019-03-20T23:56:15.645Z,57.70
2019-03-20T23:58:46.939Z,57.50
